Kelly Ann — WCZ5391 — position and weather

sailwx.info

Track history (hours):
 
Tides and Currents Weather Stations Pressure Air Temp Water Temp Dewpoint Dewpoint Depression Visibility Wind Speed Wind Dir Waves Ship Positions

Kelly Ann

Owner: PROSPERO LLC, LEBANON, OR. More information available from US FCC via Universal Licensing System and Coast Guard Vessel Documentation Center.

Last reported at 2017-Jul-11 18:13 UTC. Time now 2017-Aug-24 10:29 UTC.
Position N 26°05' W 080°11'.
Warning: this ship's position is 43 days out of date.

Length 33 m; draft 2 m.

Type: Pleasure craft. MMSI: 366773310.

Date/timePositionNaut miles runAvg speedWind from/ knotsBaromVisibWave heightAir tempDewpointWater temp
2017-Jul-11 18:13N 26°05' W 080°11'3 3.0
2017-Jul-11 17:13N 26°07' W 080°09'1 3.1
2017-Jul-11 17:01N 26°07' W 080°08'2 3.4
2017-Jul-11 16:30N 26°06' W 080°07'5 8.9
2017-Jul-11 16:00N 26°09' W 080°03'3 5.1
2017-Jul-11 15:30N 26°11' W 080°03'5 9.3
2017-Jul-11 15:00N 26°07' W 080°04'3 6.5
2017-Jul-11 14:30N 26°07' W 080°07'2 3.9
2017-Jul-11 14:00N 26°08' W 080°06'0 0.1
2017-Jul-11 13:26N 26°08' W 080°07'0 0.0
2017-Jul-11 12:56N 26°08' W 080°07'0 0.0
2017-Jul-11 12:26N 26°08' W 080°07'0 0.0
2017-Jul-11 11:53N 26°08' W 080°07'0 0.0
2017-Jul-11 11:26N 26°08' W 080°07'0 0.0
2017-Jul-11 10:44N 26°08' W 080°07'0 0.0
2017-Jul-11 10:23N 26°08' W 080°07'0 0.0
2017-Jul-11 09:59N 26°08' W 080°07'0 0.0
2017-Jul-11 09:26N 26°08' W 080°07'0 0.0
2017-Jul-11 08:44N 26°08' W 080°07'0 0.0
2017-Jul-11 08:29N 26°08' W 080°07'0 0.0
2017-Jul-11 07:59N 26°08' W 080°07'0 0.0
2017-Jul-11 07:29N 26°08' W 080°07'0 0.0
2017-Jul-11 06:59N 26°08' W 080°07'0 0.0
2017-Jul-11 06:29N 26°08' W 080°07'0 0.0
2017-Jul-11 05:59N 26°08' W 080°07'0 0.0
2017-Jul-11 05:17N 26°08' W 080°07'0 0.0
2017-Jul-11 04:59N 26°08' W 080°07'0 0.0
2017-Jul-11 04:29N 26°08' W 080°07'0 0.0
2017-Jul-11 03:58N 26°08' W 080°07'0 0.0
2017-Jul-11 03:29N 26°08' W 080°07'0 0.0
2017-Jul-11 02:59N 26°08' W 080°07'0 0.0
2017-Jul-11 02:20N 26°08' W 080°07'0 0.0
2017-Jul-11 01:53N 26°08' W 080°07'0 0.0
2017-Jul-11 01:20N 26°08' W 080°07'0 0.0
2017-Jul-11 00:53N 26°08' W 080°07'0 0.0
2017-Jul-11 00:23N 26°08' W 080°07'0 0.0
2017-Jul-10 23:53N 26°08' W 080°07'0 0.0
2017-Jul-10 23:26N 26°08' W 080°07'0 0.0
2017-Jul-10 22:56N 26°08' W 080°07'0 0.0
2017-Jul-10 22:26N 26°08' W 080°07'0 0.0
2017-Jul-10 21:53N 26°08' W 080°07'0 0.0
2017-Jul-10 21:26N 26°08' W 080°07'0 0.0
2017-Jul-10 20:56N 26°08' W 080°07'0 0.0
2017-Jul-10 20:26N 26°08' W 080°07'0 0.0
2017-Jul-10 19:56N 26°08' W 080°07'0 0.0
2017-Jul-10 19:26N 26°08' W 080°07'0 0.0
2017-Jul-10 18:59N 26°08' W 080°07'0 0.0
2017-Jul-10 18:29N 26°08' W 080°07'0 0.0
2017-Jul-10 17:59N 26°08' W 080°07'0 0.0
2017-Jul-10 17:29N 26°08' W 080°07'0 0.0
2017-Jul-10 16:58N 26°08' W 080°07'0 0.0
2017-Jul-10 16:17N 26°08' W 080°07'0 0.0
2017-Jul-10 15:59N 26°08' W 080°07'0 0.0
2017-Jul-10 15:16N 26°08' W 080°07'0 0.0
2017-Jul-10 14:59N 26°08' W 080°07'0 0.0
2017-Jul-10 14:28N 26°08' W 080°07'0 0.0
2017-Jul-10 13:59N 26°08' W 080°07'0 0.0
2017-Jul-10 13:29N 26°08' W 080°07'0 0.0
2017-Jul-10 12:58N 26°08' W 080°07'0 0.0
2017-Jul-10 12:20N 26°08' W 080°07'0 0.0
2017-Jul-10 11:50N 26°08' W 080°07'0 0.0
2017-Jul-10 11:19N 26°08' W 080°07'0 0.0
2017-Jul-10 10:46N 26°08' W 080°07'0 0.0
2017-Jul-10 10:19N 26°08' W 080°07'0 0.0
2017-Jul-10 09:53N 26°08' W 080°07'0 0.0
2017-Jul-10 08:34N 26°08' W 080°07'0 0.0
2017-Jul-10 08:19N 26°08' W 080°07'0 0.0
2017-Jul-10 06:40N 26°08' W 080°07'0 0.0
2017-Jul-10 06:26N 26°08' W 080°07'0 0.0
2017-Jul-10 05:55N 26°08' W 080°07'0 0.0
2017-Jul-10 05:26N 26°08' W 080°07'0 0.0
2017-Jul-10 04:55N 26°08' W 080°07'0 0.0
2017-Jul-10 04:25N 26°08' W 080°07'0 0.0
2017-Jul-10 03:58N 26°08' W 080°07'0 0.0
2017-Jul-10 03:25N 26°08' W 080°07'0 0.0
2017-Jul-10 02:55N 26°08' W 080°07'0 0.0
2017-Jul-10 02:14N 26°08' W 080°07'0 0.0
2017-Jul-10 01:58N 26°08' W 080°07'0 0.0
2017-Jul-10 01:13N 26°08' W 080°07'0 0.0
2017-Jul-10 00:58N 26°08' W 080°07'0 0.0
2017-Jul-10 00:20N 26°08' W 080°07'0 0.0
2017-Jul-09 23:50N 26°08' W 080°07'0 0.0
2017-Jul-09 23:19N 26°08' W 080°07'0 0.0
2017-Jul-09 22:49N 26°08' W 080°07'0 0.0
2017-Jul-09 22:19N 26°08' W 080°07'0 0.0
2017-Jul-09 21:58N 26°08' W 080°07'0 0.0
2017-Jul-09 21:19N 26°08' W 080°07'0 0.0
2017-Jul-09 20:49N 26°08' W 080°07'0 0.0
2017-Jul-09 18:37N 26°08' W 080°07'0 0.0
2017-Jul-09 18:19N 26°08' W 080°07'0 0.0
2017-Jul-09 13:28N 26°08' W 080°07'0 0.0
2017-Jul-09 12:25N 26°08' W 080°07'0 0.0
2017-Jul-09 10:31N 26°08' W 080°07'0 0.0
2017-Jul-09 09:13N 26°08' W 080°07'0 0.0
2017-Jul-09 08:31N 26°08' W 080°07'0 0.0
2017-Jul-09 08:13N 26°08' W 080°07'0 0.0
2017-Jul-09 06:13N 26°08' W 080°07'0 0.0
2017-Jul-09 05:07N 26°08' W 080°07'0 0.0
2017-Jul-09 03:46N 26°08' W 080°07'0 0.0
2017-Jul-09 03:19N 26°08' W 080°07'0 0.0
2017-Jul-09 02:52N 26°08' W 080°07'0 0.0
2017-Jul-09 01:25N 26°08' W 080°07'0 0.0
2017-Jul-09 00:55N 26°08' W 080°07'0 0.0
2017-Jul-08 23:55N 26°08' W 080°07'0 0.0
2017-Jul-08 23:25N 26°08' W 080°07'0 0.0
2017-Jul-08 22:55N 26°08' W 080°07'0 0.0
2017-Jul-08 22:28N 26°08' W 080°07'0 0.0
2017-Jul-08 21:58N 26°08' W 080°07'0 0.0
2017-Jul-08 21:25N 26°08' W 080°07'0 0.0
2017-Jul-08 20:58N 26°08' W 080°07'0 0.0
2017-Jul-08 17:58N 26°08' W 080°07'0 0.0
2017-Jul-08 17:28N 26°08' W 080°07'0 0.0
2017-Jul-08 16:49N 26°08' W 080°07'0 0.0
2017-Jul-08 16:28N 26°08' W 080°07'0 0.0
2017-Jul-08 15:49N 26°08' W 080°07'0 0.0
2017-Jul-08 15:19N 26°08' W 080°07'0 0.0
2017-Jul-08 14:49N 26°08' W 080°07'0 0.0
2017-Jul-08 13:49N 26°08' W 080°07'0 0.0
2017-Jul-08 13:22N 26°08' W 080°07'0 0.0
2017-Jul-08 12:49N 26°08' W 080°07'0 0.0
2017-Jul-08 12:19N 26°08' W 080°07'0 0.0
2017-Jul-08 11:55N 26°08' W 080°07'0 0.0
2017-Jul-08 11:25N 26°08' W 080°07'0 0.0
2017-Jul-08 10:37N 26°08' W 080°07'0 0.0
2017-Jul-08 10:25N 26°08' W 080°07'0 0.0
2017-Jul-08 09:55N 26°08' W 080°07'0 0.0
2017-Jul-08 09:25N 26°08' W 080°07'0 0.0
2017-Jul-08 08:55N 26°08' W 080°07'0 0.0
2017-Jul-08 08:25N 26°08' W 080°07'0 0.0
2017-Jul-08 07:43N 26°08' W 080°07'0 0.0
2017-Jul-08 07:13N 26°08' W 080°07'0 0.0
2017-Jul-08 06:58N 26°08' W 080°07'0 0.0
2017-Jul-08 06:25N 26°08' W 080°07'0 0.0
2017-Jul-08 05:58N 26°08' W 080°07'0 0.0
2017-Jul-08 05:28N 26°08' W 080°07'0 0.0
2017-Jul-08 04:58N 26°08' W 080°07'0 0.0
2017-Jul-08 04:13N 26°08' W 080°07'0 0.0
2017-Jul-08 03:31N 26°08' W 080°07'0 0.0
2017-Jul-08 03:28N 26°08' W 080°07'0 0.0
2017-Jul-08 02:58N 26°08' W 080°07'0 0.0
2017-Jul-08 01:49N 26°08' W 080°07'0 0.0
2017-Jul-08 01:01N 26°08' W 080°07'0 0.0
2017-Jul-08 00:49N 26°08' W 080°07'0 0.0
2017-Jul-08 00:16N 26°08' W 080°07'0 0.0
2017-Jul-07 23:49N 26°08' W 080°07'0 0.0
2017-Jul-07 23:19N 26°08' W 080°07'0 0.0
2017-Jul-07 22:49N 26°08' W 080°07'0 0.0
2017-Jul-07 22:22N 26°08' W 080°07'0 0.0
2017-Jul-07 21:52N 26°08' W 080°07'0 0.0
2017-Jul-07 21:22N 26°08' W 080°07'0 0.0
2017-Jul-07 20:49N 26°08' W 080°07'0 0.0
2017-Jul-07 20:25N 26°08' W 080°07'0 0.0
2017-Jul-07 19:52N 26°08' W 080°07'0 0.0
2017-Jul-07 19:10N 26°08' W 080°07'0 0.0
2017-Jul-07 17:22N 26°08' W 080°07'0 0.0
2017-Jul-07 16:52N 26°08' W 080°07'0 0.0
2017-Jul-07 16:13N 26°08' W 080°07'0 0.0
2017-Jul-07 15:55N 26°08' W 080°07'0 0.0
2017-Jul-07 15:25N 26°08' W 080°07'0 0.0
2017-Jul-07 14:55N 26°08' W 080°07'0 0.0
2017-Jul-07 13:58N 26°08' W 080°07'0 0.0
2017-Jul-07 13:16N 26°08' W 080°07'0 0.0
2017-Jul-07 12:43N 26°08' W 080°07'0 0.0
2017-Jul-07 12:13N 26°08' W 080°07'0 0.0
2017-Jul-07 11:31N 26°08' W 080°07'0 0.0
2017-Jul-07 10:01N 26°08' W 080°07'0 0.0
2017-Jul-07 09:49N 26°08' W 080°07'0 0.0
2017-Jul-07 03:25N 26°08' W 080°07'0 0.0
2017-Jul-07 02:13N 26°08' W 080°07'0 0.0
2017-Jul-07 00:25N 26°08' W 080°07'0 0.0
2017-Jul-06 23:55N 26°08' W 080°07'0 0.0
2017-Jul-06 23:25N 26°08' W 080°07'0 0.0
2017-Jul-06 23:13N 26°08' W 080°07'0 0.0
2017-Jul-05 07:37N 26°08' W 080°07'0 0.0
2017-Jul-05 07:25N 26°08' W 080°07'0 0.0
2017-Jul-05 06:25N 26°08' W 080°07'0 0.0
2017-Jul-05 05:58N 26°08' W 080°07'0 0.0
2017-Jul-05 05:13N 26°08' W 080°07'0 0.0
2017-Jul-05 04:58N 26°08' W 080°07'0 0.0
2017-Jul-05 04:28N 26°08' W 080°07'0 0.0
2017-Jul-05 03:58N 26°08' W 080°07'0 0.0
2017-Jul-05 03:28N 26°08' W 080°07'0 0.0
2017-Jul-05 02:01N 26°08' W 080°07'0 0.0
2017-Jul-05 01:13N 26°08' W 080°07'0 0.0
2017-Jul-04 23:31N 26°08' W 080°07'0 0.0
2017-Jul-04 23:13N 26°08' W 080°07'0 0.0
2017-Jul-04 22:49N 26°08' W 080°07'0 0.0
2017-Jul-04 22:19N 26°08' W 080°07'0 0.0
2017-Jul-04 20:37N 26°08' W 080°07'0 0.0
2017-Jul-04 14:55N 26°08' W 080°07'0 0.0
2017-Jul-03 08:13N 26°08' W 080°07'0 0.0
2017-Jul-03 07:55N 26°08' W 080°07'0 0.0
2017-Jul-03 06:28N 26°08' W 080°07'0 0.0
2017-Jul-03 05:55N 26°08' W 080°07'0 0.0
2017-Jul-03 04:58N 26°08' W 080°07'0 0.0
2017-Jul-03 04:28N 26°08' W 080°07'0 0.0
2017-Jul-03 03:46N 26°08' W 080°07'0 0.0
2017-Jul-03 03:16N 26°08' W 080°07'0 0.0
2017-Jul-03 02:58N 26°08' W 080°07'0 0.0
2017-Jul-03 02:28N 26°08' W 080°07'0 0.0
2017-Jul-03 01:49N 26°08' W 080°07'0 0.0
2017-Jul-03 01:19N 26°08' W 080°07'0 0.0
2017-Jul-03 00:58N 26°08' W 080°07'0 0.0
2017-Jul-03 00:22N 26°08' W 080°07'0 0.0
2017-Jul-02 23:52N 26°08' W 080°07'0 0.0
2017-Jul-02 23:22N 26°08' W 080°07'0 0.0
2017-Jul-02 22:52N 26°08' W 080°07'0 0.0
2017-Jul-02 22:22N 26°08' W 080°07'0 0.0
2017-Jul-02 21:52N 26°08' W 080°07'0 0.0
2017-Jul-02 21:25N 26°08' W 080°07'0 0.0
2017-Jul-02 20:52N 26°08' W 080°07'0 0.0
2017-Jul-02 20:25N 26°08' W 080°07'0 0.0
2017-Jul-02 19:55N 26°08' W 080°07'0 0.0
2017-Jul-02 19:25N 26°08' W 080°07'0 0.0
2017-Jul-02 18:58N 26°08' W 080°07'0 0.0
2017-Jul-02 18:28N 26°08' W 080°07'0 0.0
2017-Jul-02 17:58N 26°08' W 080°07'0 0.0
2017-Jul-02 17:28N 26°08' W 080°07'0 0.0
2017-Jul-02 16:55N 26°08' W 080°07'0 0.0
2017-Jul-02 16:13N 26°08' W 080°07'0 0.0
2017-Jul-02 15:58N 26°08' W 080°07'0 0.0
2017-Jul-02 15:28N 26°08' W 080°07'0 0.0
2017-Jul-02 14:58N 26°08' W 080°07'0 0.0
2017-Jul-02 13:46N 26°08' W 080°07'0 0.0
2017-Jul-02 13:28N 26°08' W 080°07'0 0.0
2017-Jul-02 12:46N 26°08' W 080°07'0 0.0
2017-Jul-02 12:28N 26°08' W 080°07'0 0.0
2017-Jul-02 11:58N 26°08' W 080°07'0 0.0
2017-Jul-02 11:28N 26°08' W 080°07'0 0.0
2017-Jul-02 10:49N 26°08' W 080°07'0 0.0
2017-Jul-02 10:19N 26°08' W 080°07'0 0.0
2017-Jul-02 09:49N 26°08' W 080°07'0 0.0
2017-Jul-02 09:19N 26°08' W 080°07'0 0.0
2017-Jul-02 08:52N 26°08' W 080°07'0 0.0
2017-Jul-02 08:22N 26°08' W 080°07'0 0.0
2017-Jul-02 07:52N 26°08' W 080°07'0 0.0
2017-Jul-02 07:19N 26°08' W 080°07'0 0.0
2017-Jul-02 06:52N 26°08' W 080°07'0 0.0
2017-Jul-02 06:25N 26°08' W 080°07'0 0.0
2017-Jul-02 05:55N 26°08' W 080°07'0 0.0
2017-Jul-02 05:25N 26°08' W 080°07'0 0.0
2017-Jul-02 04:55N 26°08' W 080°07'0 0.0
2017-Jul-02 04:25N 26°08' W 080°07'0 0.0
2017-Jul-02 03:55N 26°08' W 080°07'0 0.0
2017-Jul-02 03:22N 26°08' W 080°07'0 0.0
2017-Jul-02 02:58N 26°08' W 080°07'0 0.0
2017-Jul-02 02:28N 26°08' W 080°07'0 0.0
2017-Jul-02 01:55N 26°08' W 080°07'0 0.0
2017-Jul-02 01:28N 26°08' W 080°07'0 0.0
2017-Jul-02 00:58N 26°08' W 080°07'0 0.0
2017-Jul-02 00:28N 26°08' W 080°07'0 0.0
2017-Jul-01 23:58N 26°08' W 080°07'0 0.0
2017-Jul-01 23:28N 26°08' W 080°07'0 0.0
2017-Jul-01 22:46N 26°08' W 080°07'0 0.0
2017-Jul-01 22:19N 26°08' W 080°07'0 0.0
2017-Jul-01 21:58N 26°08' W 080°07'0 0.0
2017-Jul-01 21:28N 26°08' W 080°07'0 0.0
2017-Jul-01 20:58N 26°08' W 080°07'0 0.0
2017-Jul-01 20:19N 26°08' W 080°07'0 0.0
2017-Jul-01 19:58N 26°08' W 080°07'0 0.0
2017-Jul-01 19:19N 26°08' W 080°07'0 0.0
2017-Jul-01 19:00N 26°08' W 080°07'0 0.0
2017-Jul-01 18:19N 26°08' W 080°07'  
Track history (hours):
 
Tides and Currents Weather Stations Pressure Air Temp Water Temp Dewpoint Dewpoint Depression Visibility Wind Speed Wind Dir Waves Ship Positions

Kelly Ann

Owner: PROSPERO LLC, LEBANON, OR. More information available from US FCC via Universal Licensing System and Coast Guard Vessel Documentation Center.

Last reported at 2017-Jul-11 18:13 UTC. Time now 2017-Aug-24 10:29 UTC.
Position N 26°05' W 080°11'.
Warning: this ship's position is 43 days out of date.

Length 33 m; draft 2 m.

Type: Pleasure craft. MMSI: 366773310.

Date/timePositionNaut miles runAvg speedWind from/ knotsBaromVisibWave heightAir tempDewpointWater temp
2017-Jul-11 18:13N 26°05' W 080°11'3 3.0
2017-Jul-11 17:13N 26°07' W 080°09'1 3.1
2017-Jul-11 17:01N 26°07' W 080°08'2 3.4
2017-Jul-11 16:30N 26°06' W 080°07'5 8.9
2017-Jul-11 16:00N 26°09' W 080°03'3 5.1
2017-Jul-11 15:30N 26°11' W 080°03'5 9.3
2017-Jul-11 15:00N 26°07' W 080°04'3 6.5
2017-Jul-11 14:30N 26°07' W 080°07'2 3.9
2017-Jul-11 14:00N 26°08' W 080°06'0 0.1
2017-Jul-11 13:26N 26°08' W 080°07'0 0.0
2017-Jul-11 12:56N 26°08' W 080°07'0 0.0
2017-Jul-11 12:26N 26°08' W 080°07'0 0.0
2017-Jul-11 11:53N 26°08' W 080°07'0 0.0
2017-Jul-11 11:26N 26°08' W 080°07'0 0.0
2017-Jul-11 10:44N 26°08' W 080°07'0 0.0
2017-Jul-11 10:23N 26°08' W 080°07'0 0.0
2017-Jul-11 09:59N 26°08' W 080°07'0 0.0
2017-Jul-11 09:26N 26°08' W 080°07'0 0.0
2017-Jul-11 08:44N 26°08' W 080°07'0 0.0
2017-Jul-11 08:29N 26°08' W 080°07'0 0.0
2017-Jul-11 07:59N 26°08' W 080°07'0 0.0
2017-Jul-11 07:29N 26°08' W 080°07'0 0.0
2017-Jul-11 06:59N 26°08' W 080°07'0 0.0
2017-Jul-11 06:29N 26°08' W 080°07'0 0.0
2017-Jul-11 05:59N 26°08' W 080°07'0 0.0
2017-Jul-11 05:17N 26°08' W 080°07'0 0.0
2017-Jul-11 04:59N 26°08' W 080°07'0 0.0
2017-Jul-11 04:29N 26°08' W 080°07'0 0.0
2017-Jul-11 03:58N 26°08' W 080°07'0 0.0
2017-Jul-11 03:29N 26°08' W 080°07'0 0.0
2017-Jul-11 02:59N 26°08' W 080°07'0 0.0
2017-Jul-11 02:20N 26°08' W 080°07'0 0.0
2017-Jul-11 01:53N 26°08' W 080°07'0 0.0
2017-Jul-11 01:20N 26°08' W 080°07'0 0.0
2017-Jul-11 00:53N 26°08' W 080°07'0 0.0
2017-Jul-11 00:23N 26°08' W 080°07'0 0.0
2017-Jul-10 23:53N 26°08' W 080°07'0 0.0
2017-Jul-10 23:26N 26°08' W 080°07'0 0.0
2017-Jul-10 22:56N 26°08' W 080°07'0 0.0
2017-Jul-10 22:26N 26°08' W 080°07'0 0.0
2017-Jul-10 21:53N 26°08' W 080°07'0 0.0
2017-Jul-10 21:26N 26°08' W 080°07'0 0.0
2017-Jul-10 20:56N 26°08' W 080°07'0 0.0
2017-Jul-10 20:26N 26°08' W 080°07'0 0.0
2017-Jul-10 19:56N 26°08' W 080°07'0 0.0
2017-Jul-10 19:26N 26°08' W 080°07'0 0.0
2017-Jul-10 18:59N 26°08' W 080°07'0 0.0
2017-Jul-10 18:29N 26°08' W 080°07'0 0.0
2017-Jul-10 17:59N 26°08' W 080°07'0 0.0
2017-Jul-10 17:29N 26°08' W 080°07'0 0.0
2017-Jul-10 16:58N 26°08' W 080°07'0 0.0
2017-Jul-10 16:17N 26°08' W 080°07'0 0.0
2017-Jul-10 15:59N 26°08' W 080°07'0 0.0
2017-Jul-10 15:16N 26°08' W 080°07'0 0.0
2017-Jul-10 14:59N 26°08' W 080°07'0 0.0
2017-Jul-10 14:28N 26°08' W 080°07'0 0.0
2017-Jul-10 13:59N 26°08' W 080°07'0 0.0
2017-Jul-10 13:29N 26°08' W 080°07'0 0.0
2017-Jul-10 12:58N 26°08' W 080°07'0 0.0
2017-Jul-10 12:20N 26°08' W 080°07'0 0.0
2017-Jul-10 11:50N 26°08' W 080°07'0 0.0
2017-Jul-10 11:19N 26°08' W 080°07'0 0.0
2017-Jul-10 10:46N 26°08' W 080°07'0 0.0
2017-Jul-10 10:19N 26°08' W 080°07'0 0.0
2017-Jul-10 09:53N 26°08' W 080°07'0 0.0
2017-Jul-10 08:34N 26°08' W 080°07'0 0.0
2017-Jul-10 08:19N 26°08' W 080°07'0 0.0
2017-Jul-10 06:40N 26°08' W 080°07'0 0.0
2017-Jul-10 06:26N 26°08' W 080°07'0 0.0
2017-Jul-10 05:55N 26°08' W 080°07'0 0.0
2017-Jul-10 05:26N 26°08' W 080°07'0 0.0
2017-Jul-10 04:55N 26°08' W 080°07'0 0.0
2017-Jul-10 04:25N 26°08' W 080°07'0 0.0
2017-Jul-10 03:58N 26°08' W 080°07'0 0.0
2017-Jul-10 03:25N 26°08' W 080°07'0 0.0
2017-Jul-10 02:55N 26°08' W 080°07'0 0.0
2017-Jul-10 02:14N 26°08' W 080°07'0 0.0
2017-Jul-10 01:58N 26°08' W 080°07'0 0.0
2017-Jul-10 01:13N 26°08' W 080°07'0 0.0
2017-Jul-10 00:58N 26°08' W 080°07'0 0.0
2017-Jul-10 00:20N 26°08' W 080°07'0 0.0
2017-Jul-09 23:50N 26°08' W 080°07'0 0.0
2017-Jul-09 23:19N 26°08' W 080°07'0 0.0
2017-Jul-09 22:49N 26°08' W 080°07'0 0.0
2017-Jul-09 22:19N 26°08' W 080°07'0 0.0
2017-Jul-09 21:58N 26°08' W 080°07'0 0.0
2017-Jul-09 21:19N 26°08' W 080°07'0 0.0
2017-Jul-09 20:49N 26°08' W 080°07'0 0.0
2017-Jul-09 18:37N 26°08' W 080°07'0 0.0
2017-Jul-09 18:19N 26°08' W 080°07'0 0.0
2017-Jul-09 13:28N 26°08' W 080°07'0 0.0
2017-Jul-09 12:25N 26°08' W 080°07'0 0.0
2017-Jul-09 10:31N 26°08' W 080°07'0 0.0
2017-Jul-09 09:13N 26°08' W 080°07'0 0.0
2017-Jul-09 08:31N 26°08' W 080°07'0 0.0
2017-Jul-09 08:13N 26°08' W 080°07'0 0.0
2017-Jul-09 06:13N 26°08' W 080°07'0 0.0
2017-Jul-09 05:07N 26°08' W 080°07'0 0.0
2017-Jul-09 03:46N 26°08' W 080°07'0 0.0
2017-Jul-09 03:19N 26°08' W 080°07'0 0.0
2017-Jul-09 02:52N 26°08' W 080°07'0 0.0
2017-Jul-09 01:25N 26°08' W 080°07'0 0.0
2017-Jul-09 00:55N 26°08' W 080°07'0 0.0
2017-Jul-08 23:55N 26°08' W 080°07'0 0.0
2017-Jul-08 23:25N 26°08' W 080°07'0 0.0
2017-Jul-08 22:55N 26°08' W 080°07'0 0.0
2017-Jul-08 22:28N 26°08' W 080°07'0 0.0
2017-Jul-08 21:58N 26°08' W 080°07'0 0.0
2017-Jul-08 21:25N 26°08' W 080°07'0 0.0
2017-Jul-08 20:58N 26°08' W 080°07'0 0.0
2017-Jul-08 17:58N 26°08' W 080°07'0 0.0
2017-Jul-08 17:28N 26°08' W 080°07'0 0.0
2017-Jul-08 16:49N 26°08' W 080°07'0 0.0
2017-Jul-08 16:28N 26°08' W 080°07'0 0.0
2017-Jul-08 15:49N 26°08' W 080°07'0 0.0
2017-Jul-08 15:19N 26°08' W 080°07'0 0.0
2017-Jul-08 14:49N 26°08' W 080°07'0 0.0
2017-Jul-08 13:49N 26°08' W 080°07'0 0.0
2017-Jul-08 13:22N 26°08' W 080°07'0 0.0
2017-Jul-08 12:49N 26°08' W 080°07'0 0.0
2017-Jul-08 12:19N 26°08' W 080°07'0 0.0
2017-Jul-08 11:55N 26°08' W 080°07'0 0.0
2017-Jul-08 11:25N 26°08' W 080°07'0 0.0
2017-Jul-08 10:37N 26°08' W 080°07'0 0.0
2017-Jul-08 10:25N 26°08' W 080°07'0 0.0
2017-Jul-08 09:55N 26°08' W 080°07'0 0.0
2017-Jul-08 09:25N 26°08' W 080°07'0 0.0
2017-Jul-08 08:55N 26°08' W 080°07'0 0.0
2017-Jul-08 08:25N 26°08' W 080°07'0 0.0
2017-Jul-08 07:43N 26°08' W 080°07'0 0.0
2017-Jul-08 07:13N 26°08' W 080°07'0 0.0
2017-Jul-08 06:58N 26°08' W 080°07'0 0.0
2017-Jul-08 06:25N 26°08' W 080°07'0 0.0
2017-Jul-08 05:58N 26°08' W 080°07'0 0.0
2017-Jul-08 05:28N 26°08' W 080°07'0 0.0
2017-Jul-08 04:58N 26°08' W 080°07'0 0.0
2017-Jul-08 04:13N 26°08' W 080°07'0 0.0
2017-Jul-08 03:31N 26°08' W 080°07'0 0.0
2017-Jul-08 03:28N 26°08' W 080°07'0 0.0
2017-Jul-08 02:58N 26°08' W 080°07'0 0.0
2017-Jul-08 01:49N 26°08' W 080°07'0 0.0
2017-Jul-08 01:01N 26°08' W 080°07'0 0.0
2017-Jul-08 00:49N 26°08' W 080°07'0 0.0
2017-Jul-08 00:16N 26°08' W 080°07'0 0.0
2017-Jul-07 23:49N 26°08' W 080°07'0 0.0
2017-Jul-07 23:19N 26°08' W 080°07'0 0.0
2017-Jul-07 22:49N 26°08' W 080°07'0 0.0
2017-Jul-07 22:22N 26°08' W 080°07'0 0.0
2017-Jul-07 21:52N 26°08' W 080°07'0 0.0
2017-Jul-07 21:22N 26°08' W 080°07'0 0.0
2017-Jul-07 20:49N 26°08' W 080°07'0 0.0
2017-Jul-07 20:25N 26°08' W 080°07'0 0.0
2017-Jul-07 19:52N 26°08' W 080°07'0 0.0
2017-Jul-07 19:10N 26°08' W 080°07'0 0.0
2017-Jul-07 17:22N 26°08' W 080°07'0 0.0
2017-Jul-07 16:52N 26°08' W 080°07'0 0.0
2017-Jul-07 16:13N 26°08' W 080°07'0 0.0
2017-Jul-07 15:55N 26°08' W 080°07'0 0.0
2017-Jul-07 15:25N 26°08' W 080°07'0 0.0
2017-Jul-07 14:55N 26°08' W 080°07'0 0.0
2017-Jul-07 13:58N 26°08' W 080°07'0 0.0
2017-Jul-07 13:16N 26°08' W 080°07'0 0.0
2017-Jul-07 12:43N 26°08' W 080°07'0 0.0
2017-Jul-07 12:13N 26°08' W 080°07'0 0.0
2017-Jul-07 11:31N 26°08' W 080°07'0 0.0
2017-Jul-07 10:01N 26°08' W 080°07'0 0.0
2017-Jul-07 09:49N 26°08' W 080°07'0 0.0
2017-Jul-07 03:25N 26°08' W 080°07'0 0.0
2017-Jul-07 02:13N 26°08' W 080°07'0 0.0
2017-Jul-07 00:25N 26°08' W 080°07'0 0.0
2017-Jul-06 23:55N 26°08' W 080°07'0 0.0
2017-Jul-06 23:25N 26°08' W 080°07'0 0.0
2017-Jul-06 23:13N 26°08' W 080°07'0 0.0
2017-Jul-05 07:37N 26°08' W 080°07'0 0.0
2017-Jul-05 07:25N 26°08' W 080°07'0 0.0
2017-Jul-05 06:25N 26°08' W 080°07'0 0.0
2017-Jul-05 05:58N 26°08' W 080°07'0 0.0
2017-Jul-05 05:13N 26°08' W 080°07'0 0.0
2017-Jul-05 04:58N 26°08' W 080°07'0 0.0
2017-Jul-05 04:28N 26°08' W 080°07'0 0.0
2017-Jul-05 03:58N 26°08' W 080°07'0 0.0
2017-Jul-05 03:28N 26°08' W 080°07'0 0.0
2017-Jul-05 02:01N 26°08' W 080°07'0 0.0
2017-Jul-05 01:13N 26°08' W 080°07'0 0.0
2017-Jul-04 23:31N 26°08' W 080°07'0 0.0
2017-Jul-04 23:13N 26°08' W 080°07'0 0.0
2017-Jul-04 22:49N 26°08' W 080°07'0 0.0
2017-Jul-04 22:19N 26°08' W 080°07'0 0.0
2017-Jul-04 20:37N 26°08' W 080°07'0 0.0
2017-Jul-04 14:55N 26°08' W 080°07'0 0.0
2017-Jul-03 08:13N 26°08' W 080°07'0 0.0
2017-Jul-03 07:55N 26°08' W 080°07'0 0.0
2017-Jul-03 06:28N 26°08' W 080°07'0 0.0
2017-Jul-03 05:55N 26°08' W 080°07'0 0.0
2017-Jul-03 04:58N 26°08' W 080°07'0 0.0
2017-Jul-03 04:28N 26°08' W 080°07'0 0.0
2017-Jul-03 03:46N 26°08' W 080°07'0 0.0
2017-Jul-03 03:16N 26°08' W 080°07'0 0.0
2017-Jul-03 02:58N 26°08' W 080°07'0 0.0
2017-Jul-03 02:28N 26°08' W 080°07'0 0.0
2017-Jul-03 01:49N 26°08' W 080°07'0 0.0
2017-Jul-03 01:19N 26°08' W 080°07'0 0.0
2017-Jul-03 00:58N 26°08' W 080°07'0 0.0
2017-Jul-03 00:22N 26°08' W 080°07'0 0.0
2017-Jul-02 23:52N 26°08' W 080°07'0 0.0
2017-Jul-02 23:22N 26°08' W 080°07'0 0.0
2017-Jul-02 22:52N 26°08' W 080°07'0 0.0
2017-Jul-02 22:22N 26°08' W 080°07'0 0.0
2017-Jul-02 21:52N 26°08' W 080°07'0 0.0
2017-Jul-02 21:25N 26°08' W 080°07'0 0.0
2017-Jul-02 20:52N 26°08' W 080°07'0 0.0
2017-Jul-02 20:25N 26°08' W 080°07'0 0.0
2017-Jul-02 19:55N 26°08' W 080°07'0 0.0
2017-Jul-02 19:25N 26°08' W 080°07'0 0.0
2017-Jul-02 18:58N 26°08' W 080°07'0 0.0
2017-Jul-02 18:28N 26°08' W 080°07'0 0.0
2017-Jul-02 17:58N 26°08' W 080°07'0 0.0
2017-Jul-02 17:28N 26°08' W 080°07'0 0.0
2017-Jul-02 16:55N 26°08' W 080°07'0 0.0
2017-Jul-02 16:13N 26°08' W 080°07'0 0.0
2017-Jul-02 15:58N 26°08' W 080°07'0 0.0
2017-Jul-02 15:28N 26°08' W 080°07'0 0.0
2017-Jul-02 14:58N 26°08' W 080°07'0 0.0
2017-Jul-02 13:46N 26°08' W 080°07'0 0.0
2017-Jul-02 13:28N 26°08' W 080°07'0 0.0
2017-Jul-02 12:46N 26°08' W 080°07'0 0.0
2017-Jul-02 12:28N 26°08' W 080°07'0 0.0
2017-Jul-02 11:58N 26°08' W 080°07'0 0.0
2017-Jul-02 11:28N 26°08' W 080°07'0 0.0
2017-Jul-02 10:49N 26°08' W 080°07'0 0.0
2017-Jul-02 10:19N 26°08' W 080°07'0 0.0
2017-Jul-02 09:49N 26°08' W 080°07'0 0.0
2017-Jul-02 09:19N 26°08' W 080°07'0 0.0
2017-Jul-02 08:52N 26°08' W 080°07'0 0.0
2017-Jul-02 08:22N 26°08' W 080°07'0 0.0
2017-Jul-02 07:52N 26°08' W 080°07'0 0.0
2017-Jul-02 07:19N 26°08' W 080°07'0 0.0
2017-Jul-02 06:52N 26°08' W 080°07'0 0.0
2017-Jul-02 06:25N 26°08' W 080°07'0 0.0
2017-Jul-02 05:55N 26°08' W 080°07'0 0.0
2017-Jul-02 05:25N 26°08' W 080°07'0 0.0
2017-Jul-02 04:55N 26°08' W 080°07'0 0.0
2017-Jul-02 04:25N 26°08' W 080°07'0 0.0
2017-Jul-02 03:55N 26°08' W 080°07'0 0.0
2017-Jul-02 03:22N 26°08' W 080°07'0 0.0
2017-Jul-02 02:58N 26°08' W 080°07'0 0.0
2017-Jul-02 02:28N 26°08' W 080°07'0 0.0
2017-Jul-02 01:55N 26°08' W 080°07'0 0.0
2017-Jul-02 01:28N 26°08' W 080°07'0 0.0
2017-Jul-02 00:58N 26°08' W 080°07'0 0.0
2017-Jul-02 00:28N 26°08' W 080°07'0 0.0
2017-Jul-01 23:58N 26°08' W 080°07'0 0.0
2017-Jul-01 23:28N 26°08' W 080°07'0 0.0
2017-Jul-01 22:46N 26°08' W 080°07'0 0.0
2017-Jul-01 22:19N 26°08' W 080°07'0 0.0
2017-Jul-01 21:58N 26°08' W 080°07'0 0.0
2017-Jul-01 21:28N 26°08' W 080°07'0 0.0
2017-Jul-01 20:58N 26°08' W 080°07'0 0.0
2017-Jul-01 20:19N 26°08' W 080°07'0 0.0
2017-Jul-01 19:58N 26°08' W 080°07'0 0.0
2017-Jul-01 19:19N 26°08' W 080°07'0 0.0
2017-Jul-01 19:00N 26°08' W 080°07'0 0.0
2017-Jul-01 18:19N 26°08' W 080°07'  

Dump ship's entire track history